Serene Lydia — C6YE7 — position and weather

sailwx.info

Track history (hours):
 
Tides and Currents Weather Stations Pressure Air Temp Water Temp Dewpoint Dewpoint Depression Visibility Wind Speed Wind Dir Waves Ship Positions

Serene Lydia

Last reported at 2016-Aug-25 19:33 UTC. Time now 2016-Aug-27 04:45 UTC.
Position N 27°21' W 013°57'.

Length 190 m; draft 9.5 m.

Type: Ship. MMSI: 311030200.

Date/timePositionNaut miles runAvg speedWind from/ knotsBaromVisibWave heightAir tempDewpointWater temp
2016-Aug-25 19:33N 27°21' W 013°57'1414.0
2016-Aug-25 18:33N 27°33' W 013°48'1413.8
2016-Aug-25 17:33N 27°45' W 013°40'1413.7
2016-Aug-25 16:31N 27°56' W 013°31'1313.9
2016-Aug-25 15:33N 28°08' W 013°23'1413.7
2016-Aug-25 14:32N 28°19' W 013°14'1313.4
2016-Aug-25 13:33N 28°31' W 013°06'1413.8
2016-Aug-25 12:31N 28°42' W 012°57'1313.3
2016-Aug-25 11:33N 28°53' W 012°49'1513.1
2016-Aug-25 10:24N 29°06' W 012°40'1312.9
2016-Aug-25 09:24N 29°16' W 012°32'1313.0
2016-Aug-25 08:26N 29°27' W 012°25'6513.0
2016-Aug-25 03:27N 30°22' W 011°44'1313.5
2016-Aug-25 02:32N 30°33' W 011°36'1313.9
2016-Aug-25 01:34N 30°44' W 011°27'1413.8
2016-Aug-25 00:32N 30°55' W 011°18'1413.4
2016-Aug-24 23:31N 31°07' W 011°10'1514.5
2016-Aug-24 22:31N 31°19' W 011°01'1414.7
2016-Aug-24 21:33N 31°31' W 010°52'1414.0
2016-Aug-24 20:33N 31°43' W 010°43'1614.1
2016-Aug-24 19:27N 31°56' W 010°33'1413.6
2016-Aug-24 18:27N 32°08' W 010°24'1213.8
2016-Aug-24 17:33N 32°18' W 010°17'1513.4
2016-Aug-24 16:25N 32°32' W 010°08'1113.0
2016-Aug-24 15:33N 32°41' W 010°01'1313.1
2016-Aug-24 14:33N 32°53' W 009°53'1313.2
2016-Aug-24 13:33N 33°04' W 009°45'1313.2
2016-Aug-24 12:33N 33°15' W 009°37'1413.3
2016-Aug-24 11:29N 33°27' W 009°28'1313.4
2016-Aug-24 10:33N 33°38' W 009°21'1713.3
2016-Aug-24 09:14N 33°53' W 009°10'913.5
2016-Aug-24 08:33N 34°01' W 009°04'1413.8
2016-Aug-24 07:30N 34°14' W 008°56'1413.7
2016-Aug-24 06:28N 34°26' W 008°47'2713.9
2016-Aug-24 04:33N 34°49' W 008°30'1414.3
2016-Aug-24 03:33N 35°01' W 008°21'1514.1
2016-Aug-24 02:27N 35°14' W 008°12'3314.0
2016-Aug-24 00:07N 35°43' W 007°51'1113.8
2016-Aug-23 23:20N 35°52' W 007°45'1114.2
2016-Aug-23 22:34N 36°01' W 007°38'1514.2
2016-Aug-23 21:31N 36°14' W 007°28'2014.2
2016-Aug-23 20:06N 36°31' W 007°16'813.9
2016-Aug-23 19:33N 36°38' W 007°11'3411.1
2016-Aug-23 16:29N 37°08' W 006°50'29 0.6
2016-Aug-21 17:22N 36°39' W 006°56'1012.4
2016-Aug-21 16:33N 36°32' W 006°46'11 3.3
2016-Aug-21 13:20N 36°25' W 006°37'7 1.0
2016-Aug-21 06:33N 36°28' W 006°44'9 1.6
2016-Aug-21 00:33N 36°34' W 006°53'14 3.3
2016-Aug-20 20:21N 36°20' W 006°50'911.6
2016-Aug-20 19:33N 36°14' W 006°42'1111.1
2016-Aug-20 18:33N 36°06' W 006°32'1110.9
2016-Aug-20 17:32N 35°60' W 006°21'1110.7
2016-Aug-20 16:32N 35°58' W 006°08'1511.0
2016-Aug-20 15:08N 35°57' W 005°49'811.5
2016-Aug-20 14:27N 35°57' W 005°39'1011.1
2016-Aug-20 13:33N 35°60' W 005°27'1010.1
2016-Aug-20 12:33N 36°03' W 005°15'10 9.5
2016-Aug-20 11:33N 36°04' W 005°03'10 9.5
2016-Aug-20 10:30N 36°05' W 004°51'18211.4
2016-Aug-19 18:33N 36°24' W 001°07'1212.3
2016-Aug-19 17:34N 36°26' W 000°52'1313.0
2016-Aug-19 16:34N 36°29' W 000°36'1413.9
2016-Aug-19 15:34N 36°31' W 000°19'1413.3
2016-Aug-19 14:32N 36°33' W 000°03'2512.5
2016-Aug-19 12:34N 36°37' E 000°28'4312.7
2016-Aug-19 09:10N 36°45' E 001°21'812.9
2016-Aug-19 08:33N 36°46' E 001°30'1513.0
2016-Aug-19 07:22N 36°50' E 001°49'1113.0
2016-Aug-19 06:34N 36°52' E 002°02'1312.9
2016-Aug-19 05:32N 36°54' E 002°18'2712.7
2016-Aug-19 03:27N 36°59' E 002°51'2912.9
2016-Aug-19 01:12N 37°02' E 003°27'2112.7
2016-Aug-18 23:31N 37°08' E 003°53'1313.2
2016-Aug-18 22:33N 37°14' E 004°07'1413.4
2016-Aug-18 21:31N 37°20' E 004°22'1513.1
2016-Aug-18 20:20N 37°27' E 004°40'1212.6
2016-Aug-18 19:22N 37°33' E 004°54'3 2.1
2016-Aug-18 18:10N 37°34' E 004°57'6 1.3
2016-Aug-18 13:34N 37°28' E 004°58'1 1.1
2016-Aug-18 12:34N 37°27' E 004°58'4 1.1
2016-Aug-18 09:13N 37°23' E 004°59'1 1.0
2016-Aug-18 08:31N 37°22' E 004°59'1 1.1
2016-Aug-18 07:31N 37°21' E 004°60'1 1.1
2016-Aug-18 06:31N 37°20' E 005°00'1 1.1
2016-Aug-18 05:34N 37°19' E 005°00'1 1.3
2016-Aug-18 04:31N 37°18' E 005°01'2 1.4
2016-Aug-18 03:25N 37°17' E 005°02'2 1.7
2016-Aug-18 02:04N 37°15' E 005°03'1 1.7
2016-Aug-18 01:28N 37°14' E 005°03'2 1.7
2016-Aug-18 00:34N 37°13' E 005°05'2 1.7
2016-Aug-17 23:31N 37°11' E 005°06'2 1.8
2016-Aug-17 22:28N 37°10' E 005°08'2 1.6
2016-Aug-17 21:28N 37°09' E 005°09'2 1.4
2016-Aug-17 20:19N 37°08' E 005°11'1 1.5
2016-Aug-17 19:31N 37°07' E 005°11'10 7.9
2016-Aug-17 18:14N 36°57' E 005°10'  
Track history (hours):
 
Tides and Currents Weather Stations Pressure Air Temp Water Temp Dewpoint Dewpoint Depression Visibility Wind Speed Wind Dir Waves Ship Positions

Serene Lydia

Last reported at 2016-Aug-25 19:33 UTC. Time now 2016-Aug-27 04:45 UTC.
Position N 27°21' W 013°57'.

Length 190 m; draft 9.5 m.

Type: Ship. MMSI: 311030200.

Date/timePositionNaut miles runAvg speedWind from/ knotsBaromVisibWave heightAir tempDewpointWater temp
2016-Aug-25 19:33N 27°21' W 013°57'1414.0
2016-Aug-25 18:33N 27°33' W 013°48'1413.8
2016-Aug-25 17:33N 27°45' W 013°40'1413.7
2016-Aug-25 16:31N 27°56' W 013°31'1313.9
2016-Aug-25 15:33N 28°08' W 013°23'1413.7
2016-Aug-25 14:32N 28°19' W 013°14'1313.4
2016-Aug-25 13:33N 28°31' W 013°06'1413.8
2016-Aug-25 12:31N 28°42' W 012°57'1313.3
2016-Aug-25 11:33N 28°53' W 012°49'1513.1
2016-Aug-25 10:24N 29°06' W 012°40'1312.9
2016-Aug-25 09:24N 29°16' W 012°32'1313.0
2016-Aug-25 08:26N 29°27' W 012°25'6513.0
2016-Aug-25 03:27N 30°22' W 011°44'1313.5
2016-Aug-25 02:32N 30°33' W 011°36'1313.9
2016-Aug-25 01:34N 30°44' W 011°27'1413.8
2016-Aug-25 00:32N 30°55' W 011°18'1413.4
2016-Aug-24 23:31N 31°07' W 011°10'1514.5
2016-Aug-24 22:31N 31°19' W 011°01'1414.7
2016-Aug-24 21:33N 31°31' W 010°52'1414.0
2016-Aug-24 20:33N 31°43' W 010°43'1614.1
2016-Aug-24 19:27N 31°56' W 010°33'1413.6
2016-Aug-24 18:27N 32°08' W 010°24'1213.8
2016-Aug-24 17:33N 32°18' W 010°17'1513.4
2016-Aug-24 16:25N 32°32' W 010°08'1113.0
2016-Aug-24 15:33N 32°41' W 010°01'1313.1
2016-Aug-24 14:33N 32°53' W 009°53'1313.2
2016-Aug-24 13:33N 33°04' W 009°45'1313.2
2016-Aug-24 12:33N 33°15' W 009°37'1413.3
2016-Aug-24 11:29N 33°27' W 009°28'1313.4
2016-Aug-24 10:33N 33°38' W 009°21'1713.3
2016-Aug-24 09:14N 33°53' W 009°10'913.5
2016-Aug-24 08:33N 34°01' W 009°04'1413.8
2016-Aug-24 07:30N 34°14' W 008°56'1413.7
2016-Aug-24 06:28N 34°26' W 008°47'2713.9
2016-Aug-24 04:33N 34°49' W 008°30'1414.3
2016-Aug-24 03:33N 35°01' W 008°21'1514.1
2016-Aug-24 02:27N 35°14' W 008°12'3314.0
2016-Aug-24 00:07N 35°43' W 007°51'1113.8
2016-Aug-23 23:20N 35°52' W 007°45'1114.2
2016-Aug-23 22:34N 36°01' W 007°38'1514.2
2016-Aug-23 21:31N 36°14' W 007°28'2014.2
2016-Aug-23 20:06N 36°31' W 007°16'813.9
2016-Aug-23 19:33N 36°38' W 007°11'3411.1
2016-Aug-23 16:29N 37°08' W 006°50'29 0.6
2016-Aug-21 17:22N 36°39' W 006°56'1012.4
2016-Aug-21 16:33N 36°32' W 006°46'11 3.3
2016-Aug-21 13:20N 36°25' W 006°37'7 1.0
2016-Aug-21 06:33N 36°28' W 006°44'9 1.6
2016-Aug-21 00:33N 36°34' W 006°53'14 3.3
2016-Aug-20 20:21N 36°20' W 006°50'911.6
2016-Aug-20 19:33N 36°14' W 006°42'1111.1
2016-Aug-20 18:33N 36°06' W 006°32'1110.9
2016-Aug-20 17:32N 35°60' W 006°21'1110.7
2016-Aug-20 16:32N 35°58' W 006°08'1511.0
2016-Aug-20 15:08N 35°57' W 005°49'811.5
2016-Aug-20 14:27N 35°57' W 005°39'1011.1
2016-Aug-20 13:33N 35°60' W 005°27'1010.1
2016-Aug-20 12:33N 36°03' W 005°15'10 9.5
2016-Aug-20 11:33N 36°04' W 005°03'10 9.5
2016-Aug-20 10:30N 36°05' W 004°51'18211.4
2016-Aug-19 18:33N 36°24' W 001°07'1212.3
2016-Aug-19 17:34N 36°26' W 000°52'1313.0
2016-Aug-19 16:34N 36°29' W 000°36'1413.9
2016-Aug-19 15:34N 36°31' W 000°19'1413.3
2016-Aug-19 14:32N 36°33' W 000°03'2512.5
2016-Aug-19 12:34N 36°37' E 000°28'4312.7
2016-Aug-19 09:10N 36°45' E 001°21'812.9
2016-Aug-19 08:33N 36°46' E 001°30'1513.0
2016-Aug-19 07:22N 36°50' E 001°49'1113.0
2016-Aug-19 06:34N 36°52' E 002°02'1312.9
2016-Aug-19 05:32N 36°54' E 002°18'2712.7
2016-Aug-19 03:27N 36°59' E 002°51'2912.9
2016-Aug-19 01:12N 37°02' E 003°27'2112.7
2016-Aug-18 23:31N 37°08' E 003°53'1313.2
2016-Aug-18 22:33N 37°14' E 004°07'1413.4
2016-Aug-18 21:31N 37°20' E 004°22'1513.1
2016-Aug-18 20:20N 37°27' E 004°40'1212.6
2016-Aug-18 19:22N 37°33' E 004°54'3 2.1
2016-Aug-18 18:10N 37°34' E 004°57'6 1.3
2016-Aug-18 13:34N 37°28' E 004°58'1 1.1
2016-Aug-18 12:34N 37°27' E 004°58'4 1.1
2016-Aug-18 09:13N 37°23' E 004°59'1 1.0
2016-Aug-18 08:31N 37°22' E 004°59'1 1.1
2016-Aug-18 07:31N 37°21' E 004°60'1 1.1
2016-Aug-18 06:31N 37°20' E 005°00'1 1.1
2016-Aug-18 05:34N 37°19' E 005°00'1 1.3
2016-Aug-18 04:31N 37°18' E 005°01'2 1.4
2016-Aug-18 03:25N 37°17' E 005°02'2 1.7
2016-Aug-18 02:04N 37°15' E 005°03'1 1.7
2016-Aug-18 01:28N 37°14' E 005°03'2 1.7
2016-Aug-18 00:34N 37°13' E 005°05'2 1.7
2016-Aug-17 23:31N 37°11' E 005°06'2 1.8
2016-Aug-17 22:28N 37°10' E 005°08'2 1.6
2016-Aug-17 21:28N 37°09' E 005°09'2 1.4
2016-Aug-17 20:19N 37°08' E 005°11'1 1.5
2016-Aug-17 19:31N 37°07' E 005°11'10 7.9
2016-Aug-17 18:14N 36°57' E 005°10'  

Dump ship's entire track history